Time;durP1;ratioP1;P1;durP2;ratioP2;P2;SDS_P1;SDS_P2;PMS_P1;PMS_P2;Temp;Humidity;BMP_temperature;BMP_pressure;BME280_temperature;BME280_humidity;BME280_pressure;Samples;Min_cycle;Max_cycle;Signal;HPM_P1;HPM_P2
2021/11/30 00:00:40;;;;;;;;;30.75;27.25;;;;;3.12;69.62;101161.56;5096259;27;45162;-61
2021/11/30 00:03:06;;;;;;;;;28.75;24.75;;;;;3.13;69.15;101157.22;5060966;27;46964;-61
2021/11/30 00:05:31;;;;;;;;;29.25;25.25;;;;;3.14;69.54;101162.31;5096087;27;45434;-61
2021/11/30 00:07:57;;;;;;;;;32.75;25.75;;;;;3.15;69.01;101158.81;5095219;27;64333;-61
2021/11/30 00:13:07;;;;;;;;;27.75;23.25;;;;;3.15;69.33;101158.81;5096034;27;45900;-61
2021/11/30 00:15:32;;;;;;;;;31.00;25.25;;;;;3.15;69.04;101151.03;5096009;27;45321;-61
2021/11/30 00:17:58;;;;;;;;;27.00;21.00;;;;;3.15;69.15;101158.00;5095496;27;59947;-61
2021/11/30 00:20:23;;;;;;;;;27.75;22.00;;;;;3.14;69.28;101154.53;5076948;27;61065;-61
2021/11/30 00:22:48;;;;;;;;;22.25;18.50;;;;;3.16;69.46;101154.47;5094778;27;68291;-60
2021/11/30 00:25:14;;;;;;;;;25.00;22.00;;;;;3.17;69.45;101157.00;5095154;27;61718;-61
2021/11/30 00:27:39;;;;;;;;;26.00;18.50;;;;;3.20;69.51;101153.38;5077198;27;60803;-62
2021/11/30 00:30:05;;;;;;;;;22.00;19.50;;;;;3.22;69.64;101152.41;5097367;27;51056;-62
2021/11/30 00:32:30;;;;;;;;;18.75;17.25;;;;;3.24;69.64;101141.94;5099130;27;46355;-62
2021/11/30 00:34:56;;;;;;;;;23.75;19.00;;;;;3.27;69.71;101141.78;5098422;27;64452;-61
2021/11/30 00:37:21;;;;;;;;;27.50;21.75;;;;;3.31;69.59;101147.69;5098504;27;61942;-61
2021/11/30 00:39:46;;;;;;;;;25.75;21.00;;;;;3.34;69.03;101143.19;5098696;27;45776;-61
2021/11/30 00:42:12;;;;;;;;;25.25;18.75;;;;;3.36;69.64;101143.97;5098386;27;67922;-61
2021/11/30 00:44:39;;;;;;;;;17.50;17.50;;;;;3.39;69.47;101148.19;5098653;27;58102;-60
2021/11/30 00:47:05;;;;;;;;;22.75;20.25;;;;;3.41;69.27;101141.97;5080866;27;45325;-61
2021/11/30 00:49:30;;;;;;;;;39.75;34.75;;;;;3.45;69.09;101134.03;5099382;27;45216;-61
2021/11/30 00:51:56;;;;;;;;;23.00;21.25;;;;;3.46;69.36;101133.94;5097791;27;45423;-61
2021/11/30 00:54:22;;;;;;;;;24.75;20.75;;;;;3.49;69.28;101132.97;5099037;27;45342;-61
2021/11/30 00:56:48;;;;;;;;;28.75;23.25;;;;;3.50;69.50;101132.06;5099415;27;45304;-61
2021/11/30 00:59:13;;;;;;;;;27.25;19.75;;;;;3.52;69.36;101133.66;5080957;27;45343;-61
2021/11/30 01:01:39;;;;;;;;;27.75;23.75;;;;;3.55;69.40;101130.06;5097929;27;72032;-61
2021/11/30 01:04:05;;;;;;;;;31.00;24.50;;;;;3.59;69.15;101133.34;5079996;27;45386;-61
2021/11/30 01:06:30;;;;;;;;;21.25;18.50;;;;;3.61;68.93;101137.56;5099198;27;45381;-61
2021/11/30 01:08:56;;;;;;;;;22.25;20.75;;;;;3.66;69.09;101139.94;5097997;27;45351;-61
2021/11/30 01:11:21;;;;;;;;;26.75;22.00;;;;;3.67;68.75;101134.66;5098917;27;45409;-61
2021/11/30 01:13:47;;;;;;;;;24.00;23.75;;;;;3.71;68.90;101123.19;5098501;27;56881;-61
2021/11/30 01:16:12;;;;;;;;;29.25;25.50;;;;;3.74;68.83;101130.00;5099091;27;45366;-61
2021/11/30 01:18:37;;;;;;;;;26.00;21.25;;;;;3.78;68.58;101128.06;5099020;27;45347;-61
2021/11/30 01:21:03;;;;;;;;;24.00;22.50;;;;;3.81;68.59;101127.91;5097779;27;65706;-61
2021/11/30 01:23:32;;;;;;;;;25.75;21.25;;;;;3.82;68.54;101127.00;5098607;27;45232;-61
2021/11/30 01:26:00;;;;;;;;;30.50;23.75;;;;;3.86;68.61;101118.13;5098748;27;45387;-61
2021/11/30 01:28:25;;;;;;;;;22.00;18.00;;;;;3.89;68.76;101109.34;5098862;27;45603;-61
2021/11/30 01:30:51;;;;;;;;;23.00;16.25;;;;;3.93;68.82;101118.69;5098576;27;49515;-61
2021/11/30 01:33:16;;;;;;;;;25.00;20.25;;;;;3.95;68.50;101116.84;5097643;27;67110;-61
2021/11/30 01:35:45;;;;;;;;;26.00;20.50;;;;;3.98;68.72;101117.50;5062685;27;61451;-61
2021/11/30 01:38:12;;;;;;;;;24.50;20.50;;;;;4.03;68.77;101119.84;5098623;27;45427;-61
2021/11/30 01:40:38;;;;;;;;;25.50;20.25;;;;;4.02;68.39;101112.97;5096889;27;45513;-60
2021/11/30 01:43:05;;;;;;;;;35.25;30.50;;;;;4.03;68.72;101103.44;5098100;27;45431;-61
2021/11/30 01:50:28;;;;;;;;;25.00;19.25;;;;;4.13;68.55;101083.84;5098080;27;46217;-61
2021/11/30 01:52:54;;;;;;;;;23.00;18.00;;;;;4.14;68.47;101090.72;5098199;27;45370;-61
2021/11/30 01:55:19;;;;;;;;;19.00;16.00;;;;;4.16;68.59;101094.06;5080114;27;45460;-61
2021/11/30 01:57:45;;;;;;;;;17.75;17.25;;;;;4.18;68.78;101092.22;5098099;27;45306;-61
2021/11/30 02:00:11;;;;;;;;;19.00;15.25;;;;;4.21;68.49;101097.28;5079683;27;45425;-61
2021/11/30 02:02:36;;;;;;;;;14.50;12.75;;;;;4.24;68.63;101097.09;5096946;27;45390;-61
2021/11/30 02:05:01;;;;;;;;;15.25;13.00;;;;;4.26;69.00;101099.63;5097370;27;63296;-61
2021/11/30 02:07:27;;;;;;;;;18.00;14.00;;;;;4.30;68.85;101099.38;5080011;27;45244;-61
2021/11/30 02:09:52;;;;;;;;;18.00;14.00;;;;;4.36;68.90;101097.38;5097493;27;53118;-61
2021/11/30 02:12:18;;;;;;;;;20.25;15.25;;;;;4.38;69.06;101085.13;5097807;27;45306;-61
2021/11/30 02:14:46;;;;;;;;;21.25;15.75;;;;;4.41;69.11;101080.59;5097989;27;45245;-61
2021/11/30 02:17:11;;;;;;;;;17.00;12.25;;;;;4.45;68.91;101070.84;5097885;27;45253;-61
2021/11/30 02:19:49;;;;;;;;;20.00;15.50;;;;;4.49;68.80;101064.56;5097680;27;45436;-61
2021/11/30 02:22:14;;;;;;;;;20.50;13.75;;;;;4.52;69.01;101059.19;5097678;27;45880;-61
2021/11/30 02:24:41;;;;;;;;;19.00;13.50;;;;;4.55;68.71;101056.44;5079673;27;45362;-61
2021/11/30 02:27:06;;;;;;;;;14.00;13.25;;;;;4.58;68.56;101045.84;5079879;27;45286;-61
2021/11/30 02:29:32;;;;;;;;;23.75;18.50;;;;;4.63;68.60;101042.16;5079144;27;48510;-61
2021/11/30 02:31:57;;;;;;;;;17.75;15.50;;;;;4.65;68.78;101051.53;5097643;27;45363;-61
2021/11/30 02:34:22;;;;;;;;;18.50;13.50;;;;;4.67;68.47;101044.50;5097696;27;45223;-61
2021/11/30 02:36:50;;;;;;;;;20.25;14.00;;;;;4.70;68.33;101046.94;5097574;27;45637;-60
2021/11/30 02:39:18;;;;;;;;;20.25;18.25;;;;;4.71;68.21;101040.78;5079084;27;47061;-61
2021/11/30 02:41:43;;;;;;;;;16.25;15.75;;;;;4.75;68.33;101046.69;5078869;27;45529;-61
2021/11/30 02:44:10;;;;;;;;;18.75;14.25;;;;;4.77;68.08;101047.41;5097537;27;45426;-61
2021/11/30 02:46:47;;;;;;;;;13.50;12.50;;;;;4.77;67.86;101049.19;5097412;27;45458;-61
2021/11/30 02:49:15;;;;;;;;;15.25;12.25;;;;;4.79;68.20;101057.75;5097378;27;46207;-61
2021/11/30 02:51:42;;;;;;;;;16.25;16.25;;;;;4.79;67.97;101058.56;5078761;27;45748;-61
2021/11/30 02:54:09;;;;;;;;;13.75;13.50;;;;;4.81;68.16;101067.16;5097279;27;45475;-61
2021/11/30 02:56:38;;;;;;;;;18.75;13.50;;;;;4.83;68.05;101067.06;5097360;27;45583;-61
2021/11/30 02:59:04;;;;;;;;;14.75;13.50;;;;;4.84;68.08;101066.97;5097205;27;45358;-61
2021/11/30 03:01:29;;;;;;;;;17.00;12.50;;;;;4.86;67.82;101061.69;5097168;27;45276;-61
2021/11/30 03:03:55;;;;;;;;;19.00;15.00;;;;;4.86;67.95;101054.72;5097180;27;45234;-61
2021/11/30 03:06:20;;;;;;;;;28.00;25.50;;;;;4.90;68.01;101063.22;5097210;27;45465;-61
2021/11/30 03:08:45;;;;;;;;;21.50;18.75;;;;;4.89;67.77;101057.16;5096067;27;67457;-61
2021/11/30 03:11:11;;;;;;;;;16.75;15.00;;;;;4.91;68.19;101062.28;5097095;27;45340;-61
2021/11/30 03:13:36;;;;;;;;;17.50;15.25;;;;;4.95;68.04;101060.31;5079090;27;45319;-61
2021/11/30 03:16:03;;;;;;;;;21.00;14.50;;;;;4.94;68.07;101054.28;5096869;27;45632;-61
2021/11/30 03:18:28;;;;;;;;;19.25;14.50;;;;;4.98;67.81;101061.00;5077510;27;45570;-61
2021/11/30 03:20:54;;;;;;;;;20.00;15.75;;;;;5.00;67.68;101058.31;5061910;27;45430;-61
2021/11/30 03:23:19;;;;;;;;;18.25;14.50;;;;;5.00;67.70;101055.72;5096088;27;61773;-61
2021/11/30 03:25:44;;;;;;;;;14.75;13.00;;;;;5.00;67.52;101048.75;5096018;27;66191;-61
2021/11/30 03:28:10;;;;;;;;;16.50;14.00;;;;;5.02;67.63;101052.09;5095998;27;66552;-61
2021/11/30 03:30:38;;;;;;;;;16.25;14.75;;;;;5.01;67.75;101052.19;5096775;27;45423;-61
2021/11/30 03:36:04;;;;;;;;;16.25;14.50;;;;;5.06;67.57;101052.75;5014022;28;45403;-61
2021/11/30 03:38:29;;;;;;;;;13.50;13.00;;;;;5.08;67.67;101056.13;5060905;27;45767;-61
2021/11/30 03:40:55;;;;;;;;;14.00;9.50;;;;;5.09;67.75;101063.00;5096430;27;45406;-61
2021/11/30 03:43:20;;;;;;;;;17.25;14.00;;;;;5.10;67.59;101063.81;5077834;27;53808;-61
2021/11/30 03:45:46;;;;;;;;;17.75;12.25;;;;;5.11;67.55;101060.28;5096598;27;45365;-61
2021/11/30 03:48:12;;;;;;;;;17.25;15.00;;;;;5.13;67.60;101069.72;5061410;27;46376;-61
2021/11/30 03:50:37;;;;;;;;;16.75;14.75;;;;;5.14;67.73;101063.56;5096503;27;45246;-61
2021/11/30 03:53:02;;;;;;;;;13.25;13.00;;;;;5.18;67.47;101067.69;5095766;27;64309;-61
2021/11/30 03:55:28;;;;;;;;;20.25;14.25;;;;;5.19;67.40;101064.16;5096266;27;49180;-61
2021/11/30 03:57:53;;;;;;;;;18.00;13.00;;;;;5.21;67.53;101066.66;5095376;27;70379;-61
2021/11/30 04:00:19;;;;;;;;;11.25;10.75;;;;;5.24;67.55;101068.28;5095587;27;62856;-61
2021/11/30 04:02:44;;;;;;;;;17.75;13.25;;;;;5.25;67.45;101070.78;5096360;27;45222;-61
2021/11/30 04:05:09;;;;;;;;;16.50;12.50;;;;;5.27;67.51;101074.13;5097485;27;64834;-61
2021/11/30 04:07:35;;;;;;;;;17.25;15.50;;;;;5.29;67.84;101071.44;5099672;27;45467;-61
2021/11/30 04:10:01;;;;;;;;;18.50;13.75;;;;;5.29;67.87;101076.66;5081575;27;45410;-60
2021/11/30 04:12:26;;;;;;;;;15.00;13.75;;;;;5.31;68.10;101072.16;5099898;27;45390;-61
2021/11/30 04:14:52;;;;;;;;;19.75;15.25;;;;;5.32;68.16;101066.03;5064434;27;45492;-61
2021/11/30 04:17:17;;;;;;;;;15.50;13.75;;;;;5.32;68.66;101066.88;5099502;27;45340;-61
2021/11/30 04:19:43;;;;;;;;;19.75;14.00;;;;;5.33;68.67;101065.97;5098839;27;64791;-61
2021/11/30 04:22:08;;;;;;;;;15.50;13.00;;;;;5.32;68.94;101053.00;5098987;27;56241;-61
2021/11/30 04:24:33;;;;;;;;;16.25;15.25;;;;;5.34;69.28;101046.78;5099180;27;60358;-61
2021/11/30 04:26:59;;;;;;;;;15.00;13.00;;;;;5.35;69.25;101058.03;5098628;27;69636;-61
2021/11/30 04:29:24;;;;;;;;;19.50;14.25;;;;;5.35;69.32;101052.81;5098684;27;65391;-61
2021/11/30 04:31:49;;;;;;;;;14.50;13.00;;;;;5.35;69.68;101055.44;5099617;27;45244;-61
2021/11/30 04:34:16;;;;;;;;;16.50;15.75;;;;;5.34;69.70;101052.00;5098638;27;63760;-61
2021/11/30 04:36:42;;;;;;;;;17.25;14.50;;;;;5.35;69.62;101048.47;5081281;27;46182;-61
2021/11/30 04:39:07;;;;;;;;;21.50;16.50;;;;;5.38;69.40;101049.22;5098519;27;65138;-61
2021/11/30 04:41:33;;;;;;;;;19.00;15.00;;;;;5.37;69.70;101045.75;5099025;27;45482;-61
2021/11/30 04:43:58;;;;;;;;;17.50;15.50;;;;;5.36;69.98;101036.25;5081095;27;45319;-61
2021/11/30 04:46:26;;;;;;;;;14.75;13.00;;;;;5.36;70.10;101038.88;5099035;27;45263;-61
2021/11/30 04:51:21;;;;;;;;;16.75;14.75;;;;;5.36;70.29;101038.88;5099223;27;45279;-61
2021/11/30 04:53:47;;;;;;;;;19.25;14.75;;;;;5.35;70.21;101042.41;5099030;27;45304;-61
2021/11/30 04:56:14;;;;;;;;;19.50;13.25;;;;;5.35;70.41;101047.63;5098819;27;45659;-61
2021/11/30 04:58:40;;;;;;;;;18.50;15.00;;;;;5.34;70.81;101049.41;5080902;27;45233;-61
2021/11/30 05:01:05;;;;;;;;;22.25;19.50;;;;;5.34;70.80;101040.72;5063858;27;45353;-61
2021/11/30 05:03:31;;;;;;;;;19.50;15.50;;;;;5.35;70.86;101042.41;5097964;27;64016;-61
2021/11/30 05:05:56;;;;;;;;;17.75;14.00;;;;;5.34;71.03;101044.19;5098105;27;64132;-61
2021/11/30 05:08:21;;;;;;;;;14.25;13.25;;;;;5.35;70.98;101037.19;5079899;27;61689;-61
2021/11/30 05:10:47;;;;;;;;;17.75;16.00;;;;;5.35;71.00;101038.03;5097633;27;45482;-61
2021/11/30 05:13:13;;;;;;;;;19.00;16.75;;;;;5.32;70.89;101034.75;5098013;27;58324;-61
2021/11/30 05:15:38;;;;;;;;;21.00;14.00;;;;;5.34;70.95;101043.34;5080199;27;45504;-61
2021/11/30 05:18:04;;;;;;;;;14.25;14.25;;;;;5.35;71.29;101034.59;5097743;27;45379;-61
2021/11/30 05:20:29;;;;;;;;;20.25;19.00;;;;;5.35;71.25;101042.41;5097244;27;45410;-61
2021/11/30 05:22:55;;;;;;;;;20.50;16.50;;;;;5.35;71.12;101038.03;5078686;27;58186;-61
2021/11/30 05:25:23;;;;;;;;;19.50;14.25;;;;;5.36;71.18;101031.06;5097468;27;45377;-61
2021/11/30 05:27:49;;;;;;;;;34.75;31.25;;;;;5.35;71.13;101026.75;5080062;27;45785;-61
2021/11/30 05:30:18;;;;;;;;;17.25;14.50;;;;;5.35;71.20;101018.94;5080242;27;45331;-61
2021/11/30 05:32:43;;;;;;;;;17.75;15.00;;;;;5.32;71.11;101008.72;5080596;27;45251;-61
2021/11/30 05:35:09;;;;;;;;;21.00;18.00;;;;;5.32;71.19;101006.09;5079956;27;45316;-61
2021/11/30 05:37:34;;;;;;;;;18.50;15.75;;;;;5.32;71.54;101013.91;5098165;27;45352;-60
2021/11/30 05:40:00;;;;;;;;;13.75;11.50;;;;;5.32;71.56;101008.72;5098197;27;45417;-61
2021/11/30 05:42:25;;;;;;;;;19.75;16.50;;;;;5.34;71.19;101019.88;5097331;27;62536;-61
2021/11/30 05:44:51;;;;;;;;;21.75;17.00;;;;;5.33;71.45;101018.19;5079627;27;46279;-61
2021/11/30 05:47:17;;;;;;;;;18.75;16.50;;;;;5.33;71.42;101023.41;5098139;27;45480;-61
2021/11/30 05:49:42;;;;;;;;;20.00;18.00;;;;;5.33;71.65;101028.63;5098136;27;45226;-61
2021/11/30 05:52:08;;;;;;;;;17.25;15.50;;;;;5.34;71.36;101027.69;5097314;27;60635;-61
2021/11/30 05:54:33;;;;;;;;;14.75;14.75;;;;;5.34;71.51;101023.34;5078892;27;68654;-61
2021/11/30 05:56:58;;;;;;;;;20.50;17.00;;;;;5.35;71.61;101006.78;5097395;27;60986;-61
2021/11/30 05:59:26;;;;;;;;;19.00;15.00;;;;;5.39;71.59;101027.44;5097338;27;59353;-61
2021/11/30 06:01:53;;;;;;;;;15.75;14.75;;;;;5.39;71.66;101019.63;5079974;27;45605;-61
2021/11/30 06:04:18;;;;;;;;;16.50;13.75;;;;;5.40;71.48;101013.50;5097649;27;46212;-61
2021/11/30 06:06:44;;;;;;;;;20.50;18.00;;;;;5.40;71.48;101016.09;5062586;27;45418;-61
2021/11/30 06:09:09;;;;;;;;;21.00;16.50;;;;;5.39;71.36;101015.25;5097240;27;58985;-61
2021/11/30 06:11:34;;;;;;;;;24.75;21.75;;;;;5.38;71.57;101013.56;5097664;27;45416;-60
2021/11/30 06:14:00;;;;;;;;;20.25;15.25;;;;;5.38;71.33;101018.78;5079033;27;45460;-61
2021/11/30 06:16:26;;;;;;;;;15.25;13.00;;;;;5.37;71.58;101014.50;5097546;27;45377;-61
2021/11/30 06:18:52;;;;;;;;;17.50;15.00;;;;;5.39;71.49;101009.19;5097450;27;45206;-61
2021/11/30 06:21:17;;;;;;;;;16.00;13.75;;;;;5.40;71.56;101005.66;5078925;27;45651;-61
2021/11/30 06:23:43;;;;;;;;;20.75;14.00;;;;;5.39;71.50;101004.81;5077862;27;46193;-61
2021/11/30 06:26:08;;;;;;;;;20.25;15.00;;;;;5.39;71.46;101017.84;5095918;27;45205;-61
2021/11/30 06:28:34;;;;;;;;;14.75;14.25;;;;;5.39;71.61;101017.84;5096431;27;45308;-61
2021/11/30 06:30:59;;;;;;;;;14.50;11.25;;;;;5.41;71.60;101015.16;5079183;27;45249;-61
2021/11/30 06:33:25;;;;;;;;;19.00;16.50;;;;;5.42;71.56;101020.28;5096904;27;51520;-61
2021/11/30 06:35:50;;;;;;;;;17.00;14.75;;;;;5.43;71.51;101023.72;5096252;27;62843;-61
2021/11/30 06:38:16;;;;;;;;;18.75;14.50;;;;;5.43;71.42;101027.16;5078826;27;45231;-61
2021/11/30 06:40:41;;;;;;;;;16.50;13.25;;;;;5.45;71.31;101021.88;5096887;27;45268;-62
2021/11/30 06:43:06;;;;;;;;;20.50;17.25;;;;;5.46;71.47;101019.16;5097114;27;45451;-61
2021/11/30 06:45:32;;;;;;;;;18.50;16.00;;;;;5.46;71.75;101013.13;5096245;27;65820;-61
2021/11/30 06:47:57;;;;;;;;;23.75;18.00;;;;;5.46;71.38;101011.34;5096532;27;54597;-61
2021/11/30 06:50:22;;;;;;;;;20.00;14.25;;;;;5.47;71.33;100996.56;5096249;27;56691;-61
2021/11/30 06:52:49;;;;;;;;;16.75;13.50;;;;;5.47;71.31;101005.19;5077784;27;68756;-61
2021/11/30 06:55:14;;;;;;;;;15.50;13.75;;;;;5.47;71.28;101004.38;5096848;27;45505;-61
2021/11/30 06:57:40;;;;;;;;;16.50;15.50;;;;;5.48;71.51;101004.28;5096993;27;45422;-61
2021/11/30 07:00:08;;;;;;;;;14.50;14.25;;;;;5.48;71.48;101004.28;5096813;27;45421;-61
2021/11/30 07:02:35;;;;;;;;;15.25;13.75;;;;;5.50;71.56;101004.19;5096341;27;46249;-61
2021/11/30 07:05:12;;;;;;;;;22.00;14.00;;;;;5.51;71.37;101000.66;5096724;27;45736;-61
2021/11/30 07:10:35;;;;;;;;;16.00;13.00;;;;;5.51;71.26;101016.31;5096413;27;45458;-61
2021/11/30 07:13:15;;;;;;;;;19.75;17.75;;;;;5.53;71.80;101003.16;5062756;27;45424;-61
2021/11/30 07:15:42;;;;;;;;;19.00;14.00;;;;;5.55;71.41;101006.50;5078201;27;45778;-61
2021/11/30 07:18:08;;;;;;;;;17.25;15.25;;;;;5.57;71.46;101017.69;5078764;27;45363;-61
2021/11/30 07:20:33;;;;;;;;;14.00;12.50;;;;;5.58;71.29;101024.59;5096495;27;45402;-61
2021/11/30 07:22:59;;;;;;;;;16.25;13.75;;;;;5.55;71.39;101020.41;5095240;27;70352;-61
2021/11/30 07:25:24;;;;;;;;;16.50;16.00;;;;;5.56;71.48;101023.84;5096505;27;45491;-61
2021/11/30 07:27:51;;;;;;;;;21.50;17.25;;;;;5.57;71.57;101030.72;5096194;27;56108;-61
2021/11/30 07:30:16;;;;;;;;;19.00;14.25;;;;;5.56;71.49;101032.50;5096752;27;45607;-61
2021/11/30 07:32:41;;;;;;;;;19.50;16.00;;;;;5.58;71.73;101035.84;5077429;27;62033;-61
2021/11/30 07:35:07;;;;;;;;;20.25;15.00;;;;;5.60;71.38;101035.75;5096160;27;49672;-61
2021/11/30 07:37:33;;;;;;;;;22.50;17.75;;;;;5.62;71.56;101033.91;5095846;27;45374;-61
2021/11/30 07:39:58;;;;;;;;;16.25;13.25;;;;;5.63;71.51;101036.41;5099318;27;51248;-61
2021/11/30 07:42:24;;;;;;;;;16.75;14.75;;;;;5.64;71.67;101032.88;5099185;27;46041;-61
2021/11/30 07:44:50;;;;;;;;;14.25;14.25;;;;;5.65;71.64;101033.72;5099485;27;45246;-61
2021/11/30 07:47:15;;;;;;;;;15.25;14.50;;;;;5.68;71.69;101030.94;5081669;27;45296;-61
2021/11/30 07:49:41;;;;;;;;;19.50;15.75;;;;;5.69;71.42;101030.00;5099769;27;45212;-61
2021/11/30 07:52:07;;;;;;;;;24.00;16.00;;;;;5.72;71.62;101027.22;5098893;27;66191;-60
2021/11/30 07:54:32;;;;;;;;;21.00;14.25;;;;;5.74;71.70;101027.97;5098697;27;45311;-61
2021/11/30 07:56:58;;;;;;;;;16.25;14.25;;;;;5.77;71.98;101033.00;5099642;27;45264;-61
2021/11/30 07:59:23;;;;;;;;;16.50;15.25;;;;;5.82;72.15;101027.47;5099383;27;45350;-61
2021/11/30 08:01:48;;;;;;;;;21.75;16.75;;;;;5.84;72.05;101033.44;5098518;27;67904;-61
2021/11/30 08:04:14;;;;;;;;;22.25;18.75;;;;;5.85;71.89;101035.13;5099301;27;45326;-61
2021/11/30 08:06:40;;;;;;;;;15.00;14.00;;;;;5.87;72.15;101041.09;5064577;27;45361;-61
2021/11/30 08:09:06;;;;;;;;;19.75;15.00;;;;;5.90;72.21;101045.25;5099558;27;45404;-61
2021/11/30 08:11:32;;;;;;;;;21.25;18.00;;;;;5.90;72.22;101046.13;5099413;27;46553;-61
2021/11/30 08:13:57;;;;;;;;;20.25;15.00;;;;;5.92;72.15;101046.00;5080505;27;62342;-61
2021/11/30 08:16:22;;;;;;;;;15.00;13.50;;;;;5.94;72.10;101045.00;5099178;27;50834;-61
2021/11/30 08:18:48;;;;;;;;;22.50;14.25;;;;;5.94;72.38;101055.44;5098827;27;61284;-61
2021/11/30 08:21:13;;;;;;;;;21.00;16.50;;;;;5.94;72.39;101060.66;5098761;27;66788;-61
2021/11/30 08:23:38;;;;;;;;;20.50;16.00;;;;;5.94;72.41;101058.03;5098744;27;59655;-61
2021/11/30 08:26:04;;;;;;;;;22.50;18.75;;;;;5.97;72.58;101046.56;5098965;27;51696;-61
2021/11/30 08:28:29;;;;;;;;;20.50;17.00;;;;;5.98;72.73;101044.81;5099324;27;45284;-61
2021/11/30 08:30:55;;;;;;;;;20.75;16.00;;;;;5.99;72.46;101036.88;5098371;27;65669;-61
2021/11/30 08:33:21;;;;;;;;;20.75;19.75;;;;;6.01;72.67;101044.66;5099494;27;45311;-61
2021/11/30 08:35:46;;;;;;;;;16.00;16.00;;;;;6.03;72.42;101045.41;5079006;27;45476;-61
2021/11/30 08:38:12;;;;;;;;;19.00;16.25;;;;;6.04;72.61;101045.31;5064082;27;45830;-62
2021/11/30 08:40:37;;;;;;;;;20.00;16.75;;;;;6.06;72.55;101048.66;5080139;27;46221;-61
2021/11/30 08:43:03;;;;;;;;;18.00;14.75;;;;;6.08;72.71;101040.75;5076969;27;45437;-61
2021/11/30 08:45:28;;;;;;;;;17.75;15.50;;;;;6.09;72.49;101043.25;5077674;27;45492;-61
2021/11/30 08:47:54;;;;;;;;;22.00;17.00;;;;;6.12;72.52;101042.22;5075428;27;62942;-61
2021/11/30 08:50:19;;;;;;;;;20.75;17.00;;;;;6.14;72.43;101045.56;5076451;27;45550;-61
2021/11/30 08:52:45;;;;;;;;;22.75;21.00;;;;;6.15;72.54;101028.16;5090429;27;45292;-61
2021/11/30 08:55:11;;;;;;;;;22.75;17.25;;;;;6.18;72.36;101034.00;5077801;27;45459;-61
2021/11/30 08:57:37;;;;;;;;;21.00;17.25;;;;;6.20;72.52;101033.94;5077534;27;45327;-61
2021/11/30 09:00:06;;;;;;;;;26.25;20.00;;;;;6.22;72.15;101029.44;5067994;27;45341;-61
2021/11/30 09:02:31;;;;;;;;;24.00;19.75;;;;;6.24;72.50;101030.19;5058612;27;45935;-61
2021/11/30 09:04:57;;;;;;;;;23.75;20.50;;;;;6.26;72.36;101038.78;5077126;27;48963;-61
2021/11/30 09:07:22;;;;;;;;;23.00;17.25;;;;;6.28;72.22;101031.69;5076565;27;61796;-61
2021/11/30 09:09:48;;;;;;;;;27.00;18.25;;;;;6.28;71.90;101042.13;5058861;27;49074;-61
2021/11/30 09:12:15;;;;;;;;;26.25;20.50;;;;;6.31;72.21;101034.09;5076800;27;45517;-61
2021/11/30 09:14:40;;;;;;;;;27.00;23.75;;;;;6.32;72.15;101046.22;5058848;27;45391;-61
2021/11/30 09:17:06;;;;;;;;;30.25;20.00;;;;;6.33;71.99;101037.44;5068668;27;60032;-61
2021/11/30 09:19:31;;;;;;;;;35.00;27.25;;;;;6.35;72.06;101040.81;5079782;27;46480;-61
2021/11/30 09:21:56;;;;;;;;;25.25;23.25;;;;;6.37;71.87;101038.09;5076775;27;45463;-61
2021/11/30 09:24:22;;;;;;;;;25.25;23.25;;;;;6.40;72.00;101045.72;5076455;27;45973;-61
2021/11/30 09:26:47;;;;;;;;;24.25;22.00;;;;;6.44;71.50;101051.56;5058278;27;45530;-61
2021/11/30 09:29:13;;;;;;;;;19.75;18.00;;;;;6.44;71.49;101052.44;5063059;27;45771;-61
2021/11/30 09:31:39;;;;;;;;;27.50;21.75;;;;;6.44;71.71;101038.53;5078936;27;45459;-61
2021/11/30 09:34:04;;;;;;;;;34.25;29.50;;;;;6.44;71.53;101039.38;5076777;27;45498;-61
2021/11/30 09:36:33;;;;;;;;;34.00;29.00;;;;;6.46;71.68;101053.19;5077296;27;46292;-61
2021/11/30 09:39:04;;;;;;;;;31.75;25.50;;;;;6.46;71.47;101044.50;5080259;27;46426;-61
2021/11/30 09:41:31;;;;;;;;;36.00;27.75;;;;;6.48;71.58;101048.69;5065450;27;45787;-61
2021/11/30 09:43:56;;;;;;;;;29.50;25.25;;;;;6.50;71.74;101052.06;5056582;28;45389;-61
2021/11/30 09:46:22;;;;;;;;;40.75;29.00;;;;;6.51;71.76;101051.13;5056005;28;50351;-61
2021/11/30 09:48:47;;;;;;;;;30.50;25.00;;;;;6.54;71.70;101044.84;5040210;28;46234;-61
2021/11/30 09:51:13;;;;;;;;;30.75;23.75;;;;;6.56;71.46;101044.78;5045845;28;45501;-62
2021/11/30 09:53:38;;;;;;;;;28.25;24.00;;;;;6.58;71.40;101059.38;5055269;28;45630;-61
2021/11/30 09:56:04;;;;;;;;;38.50;32.50;;;;;6.61;71.56;101053.97;5059068;28;50465;-61
2021/11/30 09:58:29;;;;;;;;;31.50;26.50;;;;;6.62;71.43;101050.44;5058803;28;45410;-61
2021/11/30 10:00:56;;;;;;;;;26.50;24.75;;;;;6.62;71.51;101052.22;5037092;28;66882;-61
2021/11/30 10:03:22;;;;;;;;;28.00;24.00;;;;;6.63;71.50;101049.50;5054590;28;45464;-61
2021/11/30 10:05:47;;;;;;;;;26.25;22.50;;;;;6.65;71.26;101050.22;5046144;28;45368;-61
2021/11/30 10:08:33;;;;;;;;;36.00;31.00;;;;;6.65;71.56;101038.94;5055987;28;63253;-61
2021/11/30 10:10:59;;;;;;;;;34.75;32.00;;;;;6.66;71.47;101036.25;5056459;28;45350;-61
2021/11/30 10:13:24;;;;;;;;;28.75;27.25;;;;;6.67;71.56;101032.69;5046702;28;45367;-61
2021/11/30 10:15:55;;;;;;;;;37.00;28.50;;;;;6.73;71.53;101035.84;5054942;28;59892;-61
2021/11/30 10:18:24;;;;;;;;;31.75;26.75;;;;;6.73;71.73;101034.06;5040544;28;47138;-62
2021/11/30 10:20:54;;;;;;;;;33.75;30.25;;;;;6.75;71.67;101034.81;5055594;28;45380;-61
2021/11/30 10:23:22;;;;;;;;;32.25;27.50;;;;;6.78;71.63;101037.22;5037287;28;45486;-61
2021/11/30 10:25:48;;;;;;;;;33.25;25.25;;;;;6.80;71.54;101031.91;5055715;28;45317;-61
2021/11/30 10:28:16;;;;;;;;;26.75;25.00;;;;;6.83;71.58;101036.94;5066918;28;45900;-61
2021/11/30 10:30:47;;;;;;;;;31.25;26.50;;;;;6.84;71.47;101028.16;5041686;28;45723;-61
2021/11/30 10:33:33;;;;;;;;;26.00;24.00;;;;;6.90;71.88;101038.19;5037732;28;45465;-61
2021/11/30 10:35:59;;;;;;;;;33.00;26.75;;;;;6.92;71.79;101036.31;5055373;28;45513;-61
2021/11/30 10:38:38;;;;;;;;;27.50;25.50;;;;;6.95;71.75;101035.28;5055354;28;45467;-61
2021/11/30 10:41:15;;;;;;;;;32.25;25.75;;;;;6.98;72.08;101043.75;5042766;28;48519;-61
2021/11/30 10:43:57;;;;;;;;;33.25;29.00;;;;;7.02;72.02;101030.50;5054356;27;45463;-61
2021/11/30 10:46:22;;;;;;;;;27.00;22.75;;;;;7.05;72.19;101025.06;5056071;28;45661;-61
2021/11/30 10:48:47;;;;;;;;;29.33;25.67;;;;;7.09;72.11;101021.31;5055120;28;46217;-61
2021/11/30 10:51:13;;;;;;;;;23.00;20.25;;;;;7.13;72.11;101017.56;5053890;28;60480;-61
2021/11/30 10:53:38;;;;;;;;;25.00;23.00;;;;;7.17;72.16;101029.50;5055176;28;65674;-61
2021/11/30 10:56:05;;;;;;;;;27.25;24.25;;;;;7.20;72.32;101021.44;5054101;28;45437;-61
2021/11/30 10:58:39;;;;;;;;;27.00;21.75;;;;;7.24;72.15;101022.91;5052193;27;45662;-61
2021/11/30 11:01:11;;;;;;;;;19.75;18.25;;;;;7.26;72.37;101013.19;5055458;28;46112;-61
2021/11/30 11:03:36;;;;;;;;;20.25;18.25;;;;;7.32;72.27;101018.97;5053288;28;45494;-61
2021/11/30 11:08:50;;;;;;;;;26.75;20.50;;;;;7.37;72.36;101004.63;5046275;28;45323;-61
2021/11/30 11:11:20;;;;;;;;;21.25;20.50;;;;;7.41;72.30;101006.09;5051581;28;45537;-61
2021/11/30 11:13:46;;;;;;;;;28.75;18.75;;;;;7.45;72.39;100998.88;5049501;28;45465;-61
2021/11/30 11:16:24;;;;;;;;;27.50;27.50;;;;;7.50;72.31;100996.78;5060340;28;45679;-61
2021/11/30 11:18:50;;;;;;;;;26.50;23.50;;;;;7.53;72.17;100991.34;5055006;28;45455;-61
2021/11/30 11:21:38;;;;;;;;;27.75;23.25;;;;;7.57;72.20;100990.19;5054342;28;45922;-61
2021/11/30 11:24:16;;;;;;;;;26.75;23.00;;;;;7.60;72.22;100989.16;5053906;28;45606;-61
2021/11/30 11:26:45;;;;;;;;;21.25;16.75;;;;;7.65;72.11;100991.44;5054043;28;45637;-61
2021/11/30 11:29:15;;;;;;;;;18.50;13.75;;;;;7.67;72.09;100987.81;5053738;28;45353;-61
2021/11/30 11:31:43;;;;;;;;;19.25;15.50;;;;;7.73;71.88;100994.38;5051114;28;46052;-61